Time;durP1;ratioP1;P1;durP2;ratioP2;P2;SDS_P1;SDS_P2;PMS_P1;PMS_P2;Temp;Humidity;BMP_temperature;BMP_pressure;BME280_temperature;BME280_humidity;BME280_pressure;Samples;Min_cycle;Max_cycle;Signal;HPM_P1;HPM_P2
2023/01/10 00:00:52;;;;;;;7.63;5.15;;;11.70;99.90;;;;;;5033645;28;20160;-48
2023/01/10 00:03:18;;;;;;;6.18;3.70;;;;;;;;;;5035916;28;20049;-48
2023/01/10 00:05:44;;;;;;;26.33;17.88;;;11.80;99.90;;;;;;5035628;28;20021;-48
2023/01/10 00:08:14;;;;;;;30.35;16.60;;;11.80;99.90;;;;;;5033534;28;20040;-48
2023/01/10 00:10:39;;;;;;;24.13;13.35;;;11.70;99.90;;;;;;5013504;28;20034;-48
2023/01/10 00:13:23;;;;;;;6.28;4.43;;;11.80;99.90;;;;;;5013291;28;20038;-48
2023/01/10 00:15:54;;;;;;;4.85;3.47;;;11.80;99.90;;;;;;5013443;28;20395;-48
2023/01/10 00:18:21;;;;;;;5.65;3.90;;;11.70;99.90;;;;;;5013047;28;20033;-48
2023/01/10 00:20:50;;;;;;;6.90;4.32;;;11.80;99.90;;;;;;4997064;28;20045;-48
2023/01/10 00:23:17;;;;;;;7.13;4.10;;;11.40;99.90;;;;;;5013189;28;20042;-48
2023/01/10 00:25:43;;;;;;;7.75;3.70;;;11.30;99.90;;;;;;5013247;28;20480;-48
2023/01/10 00:28:20;;;;;;;4.80;3.40;;;11.20;99.90;;;;;;5013153;28;20117;-49
2023/01/10 00:30:49;;;;;;;4.80;3.85;;;;;;;;;;5013069;28;20034;-48
2023/01/10 00:33:18;;;;;;;4.93;3.30;;;;;;;;;;5012995;28;20084;-48
2023/01/10 00:35:44;;;;;;;4.40;2.42;;;;;;;;;;5012973;28;20482;-48
2023/01/10 00:38:10;;;;;;;4.18;2.80;;;;;;;;;;5031821;28;20032;-48
2023/01/10 00:40:36;;;;;;;2.45;1.88;;;10.80;99.90;;;;;;5034371;28;20071;-48
2023/01/10 00:45:47;;;;;;;2.28;1.45;;;10.50;99.90;;;;;;5054796;28;20451;-48
2023/01/10 00:48:14;;;;;;;6.65;3.08;;;10.50;99.90;;;;;;5069608;28;20036;-48
2023/01/10 00:50:40;;;;;;;5.80;3.50;;;10.50;99.90;;;;;;5052710;28;20036;-48
2023/01/10 00:53:06;;;;;;;5.40;3.88;;;10.60;99.90;;;;;;5019520;28;20049;-49
2023/01/10 00:55:33;;;;;;;4.80;3.95;;;10.60;99.90;;;;;;5054731;28;20048;-48
2023/01/10 00:57:59;;;;;;;4.63;3.70;;;10.60;99.90;;;;;;5054267;28;20033;-48
2023/01/10 01:00:25;;;;;;;5.38;4.03;;;;;;;;;;5054139;28;20048;-48
2023/01/10 01:02:51;;;;;;;9.27;6.45;;;10.60;99.90;;;;;;5035665;28;20036;-48
2023/01/10 01:05:17;;;;;;;4.97;4.10;;;10.80;99.90;;;;;;5052400;28;20041;-48
2023/01/10 01:07:46;;;;;;;8.68;5.85;;;10.80;99.90;;;;;;5054896;28;20531;-48
2023/01/10 01:10:27;;;;;;;9.98;7.05;;;10.90;99.90;;;;;;5036040;28;20064;-48
2023/01/10 01:12:58;;;;;;;5.78;3.85;;;11.10;99.90;;;;;;5023325;28;20445;-48
2023/01/10 01:15:25;;;;;;;5.95;4.13;;;11.20;99.90;;;;;;4995125;28;20053;-48
2023/01/10 01:17:52;;;;;;;9.82;7.57;;;11.20;99.90;;;;;;5012415;28;20034;-48
2023/01/10 01:20:18;;;;;;;10.13;7.70;;;10.90;99.90;;;;;;5012169;28;20034;-48
2023/01/10 01:22:44;;;;;;;6.35;4.53;;;10.70;99.90;;;;;;4996149;28;20052;-48
2023/01/10 01:25:10;;;;;;;5.25;4.30;;;10.40;99.90;;;;;;5011571;28;20038;-48
2023/01/10 01:27:37;;;;;;;6.03;4.40;;;10.20;99.90;;;;;;5012022;28;20029;-48
2023/01/10 01:30:07;;;;;;;3.22;2.15;;;10.20;99.90;;;;;;5011439;28;20042;-48
2023/01/10 01:32:33;;;;;;;2.25;1.50;;;9.90;99.90;;;;;;5011914;28;20040;-48
2023/01/10 01:34:59;;;;;;;2.55;1.60;;;9.60;99.90;;;;;;5010915;28;20052;-47
2023/01/10 01:37:25;;;;;;;3.38;1.52;;;;;;;;;;5028391;28;20050;-46
2023/01/10 01:39:51;;;;;;;2.10;1.60;;;9.50;99.90;;;;;;5012190;28;20060;-46
2023/01/10 01:42:33;;;;;;;1.65;1.35;;;;;;;;;;5028474;28;20038;-47
2023/01/10 01:45:22;;;;;;;1.23;1.13;;;9.20;99.90;;;;;;5008654;28;20030;-47
2023/01/10 01:47:53;;;;;;;1.00;0.90;;;9.30;99.90;;;;;;4986471;28;20062;-47
2023/01/10 01:50:33;;;;;;;1.10;1.00;;;9.10;99.90;;;;;;4990332;28;20510;-47
2023/01/10 01:53:05;;;;;;;0.77;0.70;;;9.10;99.90;;;;;;4987116;28;20832;-47
2023/01/10 01:55:33;;;;;;;1.38;0.73;;;9.00;99.90;;;;;;4988666;28;20061;-47
2023/01/10 01:58:03;;;;;;;1.30;0.98;;;8.90;99.90;;;;;;4990562;28;20073;-47
2023/01/10 02:00:29;;;;;;;0.70;0.70;;;8.90;99.90;;;;;;4990651;28;20026;-47
2023/01/10 02:02:58;;;;;;;0.45;0.45;;;;;;;;;;4990609;28;20462;-47
2023/01/10 02:05:25;;;;;;;0.90;0.90;;;9.30;99.90;;;;;;4991801;28;20042;-48
2023/01/10 02:07:56;;;;;;;2.33;1.10;;;8.70;99.90;;;;;;4992096;28;20502;-47
2023/01/10 02:10:38;;;;;;;0.73;0.73;;;8.70;99.90;;;;;;4991889;28;20030;-47
2023/01/10 02:13:07;;;;;;;1.00;0.80;;;8.50;99.90;;;;;;4975539;28;20108;-47
2023/01/10 02:15:32;;;;;;;0.82;0.70;;;8.60;99.90;;;;;;4991670;28;20050;-46
2023/01/10 02:18:00;;;;;;;1.45;1.10;;;8.60;99.90;;;;;;4991985;28;20049;-46
2023/01/10 02:20:29;;;;;;;1.85;0.60;;;8.70;99.90;;;;;;4991656;28;20031;-46
2023/01/10 02:23:16;;;;;;;0.63;0.60;;;8.40;99.90;;;;;;4991798;28;20479;-46
2023/01/10 02:26:16;;;;;;;1.45;0.60;;;8.50;99.90;;;;;;5045939;28;20068;-47
2023/01/10 02:29:05;;;;;;;0.45;0.45;;;8.30;99.90;;;;;;5053310;28;20480;-46
2023/01/10 02:31:34;;;;;;;0.55;0.50;;;;;;;;;;5052799;28;20029;-47
2023/01/10 02:34:06;;;;;;;0.50;0.50;;;;;;;;;;5053022;28;20021;-46
2023/01/10 02:36:42;;;;;;;0.50;0.50;;;;;;;;;;5053160;28;20111;-47
2023/01/10 02:39:13;;;;;;;0.50;0.50;;;;;;;;;;5052817;28;20044;-46
2023/01/10 02:42:12;;;;;;;0.73;0.60;;;8.30;99.90;;;;;;5067789;28;20114;-47
2023/01/10 02:44:49;;;;;;;1.05;0.50;;;8.30;99.90;;;;;;5053016;28;20022;-47
2023/01/10 02:47:16;;;;;;;0.55;0.47;;;8.40;99.90;;;;;;5052824;28;20416;-46
2023/01/10 02:49:49;;;;;;;0.30;0.30;;;8.20;99.90;;;;;;5030584;28;20100;-47
2023/01/10 02:52:29;;;;;;;1.10;0.40;;;8.10;99.90;;;;;;5030443;28;20056;-46
2023/01/10 02:55:00;;;;;;;1.17;0.40;;;8.00;99.90;;;;;;5030619;28;20053;-47
2023/01/10 02:57:25;;;;;;;0.50;0.40;;;7.90;99.90;;;;;;5030666;28;20393;-47
2023/01/10 03:00:06;;;;;;;0.57;0.38;;;7.90;99.90;;;;;;5030674;28;20045;-47
2023/01/10 03:02:40;;;;;;;0.40;0.40;;;7.90;99.90;;;;;;5030838;28;20029;-46
2023/01/10 03:05:14;;;;;;;0.28;0.28;;;7.80;99.90;;;;;;5030533;28;20034;-47
2023/01/10 03:07:59;;;;;;;1.33;0.47;;;7.80;99.90;;;;;;5030575;28;20063;-47
2023/01/10 03:10:38;;;;;;;0.43;0.40;;;7.70;99.90;;;;;;4997362;28;20071;-46
2023/01/10 03:13:22;;;;;;;1.50;0.60;;;7.80;99.90;;;;;;5030457;28;20034;-47
2023/01/10 03:15:49;;;;;;;0.50;0.50;;;7.80;99.90;;;;;;5030433;28;20038;-47
2023/01/10 03:18:26;;;;;;;2.13;0.50;;;7.70;99.90;;;;;;5030520;28;20070;-46
2023/01/10 03:20:56;;;;;;;0.60;0.45;;;7.80;99.90;;;;;;5042475;28;20040;-46
2023/01/10 03:23:23;;;;;;;0.80;0.70;;;7.70;99.90;;;;;;5052823;28;20401;-46
2023/01/10 03:25:53;;;;;;;0.70;0.70;;;7.70;99.90;;;;;;5052847;28;20060;-47
2023/01/10 03:28:23;;;;;;;0.40;0.40;;;7.80;99.90;;;;;;5052388;28;20040;-47
2023/01/10 03:30:56;;;;;;;0.32;0.32;;;7.60;99.90;;;;;;5052644;28;20029;-47
2023/01/10 03:33:26;;;;;;;0.38;0.38;;;7.60;99.90;;;;;;5052588;28;20037;-46
2023/01/10 03:36:04;;;;;;;0.40;0.40;;;7.60;99.90;;;;;;5052243;28;20060;-47
2023/01/10 03:38:45;;;;;;;0.40;0.40;;;7.70;99.90;;;;;;5052307;28;20025;-47
2023/01/10 03:41:30;;;;;;;0.60;0.52;;;7.70;99.90;;;;;;5052087;28;20476;-47
2023/01/10 03:47:20;;;;;;;0.70;0.50;;;7.70;99.90;;;;;;5052492;28;20036;-47
2023/01/10 03:49:52;;;;;;;0.60;0.60;;;7.60;99.90;;;;;;5052323;28;20504;-46
2023/01/10 03:52:19;;;;;;;0.70;0.70;;;7.60;99.90;;;;;;5069193;28;20469;-46
2023/01/10 03:54:45;;;;;;;1.83;0.60;;;7.50;99.90;;;;;;5055980;28;20473;-47
2023/01/10 03:57:21;;;;;;;1.27;0.63;;;7.40;99.90;;;;;;5055837;28;20040;-47
2023/01/10 03:59:53;;;;;;;1.05;0.70;;;7.50;99.90;;;;;;4965479;28;20092;-46
2023/01/10 04:02:20;;;;;;;0.60;0.60;;;7.40;99.90;;;;;;4994206;28;20038;-46
2023/01/10 04:04:45;;;;;;;0.40;0.40;;;7.30;99.90;;;;;;4994425;28;20045;-47
2023/01/10 04:07:11;;;;;;;0.50;0.50;;;7.30;99.90;;;;;;4994167;28;20035;-47
2023/01/10 04:09:37;;;;;;;1.10;0.63;;;7.20;99.90;;;;;;5005731;28;20034;-47
2023/01/10 04:12:03;;;;;;;0.50;0.50;;;7.30;99.90;;;;;;5013543;28;20049;-47
2023/01/10 04:14:31;;;;;;;0.30;0.30;;;7.20;99.90;;;;;;4997331;28;20038;-47
2023/01/10 04:16:57;;;;;;;0.90;0.30;;;;;;;;;;5013248;28;20452;-47
2023/01/10 04:19:23;;;;;;;0.40;0.40;;;7.40;99.90;;;;;;5013650;28;20077;-47
2023/01/10 04:21:48;;;;;;;0.30;0.30;;;7.10;99.90;;;;;;5013547;28;20065;-47
2023/01/10 04:24:14;;;;;;;0.40;0.40;;;7.00;99.90;;;;;;4997035;28;20151;-46
2023/01/10 04:26:40;;;;;;;0.45;0.30;;;7.10;99.90;;;;;;5013444;28;20124;-47
2023/01/10 04:29:06;;;;;;;0.90;0.55;;;7.00;99.90;;;;;;4996968;28;20137;-47
2023/01/10 04:31:31;;;;;;;0.52;0.40;;;7.10;99.90;;;;;;5048210;28;20036;-47
2023/01/10 04:33:57;;;;;;;0.35;0.35;;;7.10;99.90;;;;;;5054652;28;20029;-47
2023/01/10 04:36:23;;;;;;;0.50;0.50;;;7.10;99.90;;;;;;5069938;28;20504;-47
2023/01/10 04:38:49;;;;;;;0.50;0.50;;;7.10;99.90;;;;;;5055341;28;20025;-47
2023/01/10 04:41:14;;;;;;;0.50;0.50;;;7.10;99.90;;;;;;5055138;28;20032;-46
2023/01/10 04:43:40;;;;;;;0.30;0.30;;;7.00;99.90;;;;;;5069801;28;20120;-46
2023/01/10 04:46:06;;;;;;;0.30;0.30;;;6.90;99.90;;;;;;5054811;28;20033;-47
2023/01/10 04:48:32;;;;;;;0.40;0.40;;;6.90;99.90;;;;;;5070006;28;20040;-46
2023/01/10 04:50:58;;;;;;;1.10;1.00;;;6.90;99.90;;;;;;5055136;28;20075;-47
2023/01/10 04:53:24;;;;;;;0.70;0.45;;;6.80;99.90;;;;;;5069339;28;21077;-47
2023/01/10 04:55:51;;;;;;;0.60;0.50;;;6.80;99.90;;;;;;5055244;28;20053;-46
2023/01/10 04:58:16;;;;;;;1.10;0.70;;;6.70;99.90;;;;;;5054636;28;20487;-47
2023/01/10 05:00:42;;;;;;;0.75;0.52;;;6.80;99.90;;;;;;5019842;28;20056;-47
2023/01/10 05:03:08;;;;;;;2.58;1.00;;;6.80;99.90;;;;;;5054893;28;20507;-47
2023/01/10 05:05:34;;;;;;;0.70;0.70;;;6.80;99.90;;;;;;5035755;28;20045;-47
2023/01/10 05:08:00;;;;;;;1.27;0.90;;;6.80;99.90;;;;;;5054710;28;20032;-46
2023/01/10 05:10:26;;;;;;;0.40;0.40;;;6.80;99.90;;;;;;5055454;28;20069;-47
2023/01/10 05:12:51;;;;;;;1.08;0.85;;;6.90;99.90;;;;;;5037539;28;20049;-47
2023/01/10 05:15:19;;;;;;;3.88;3.25;;;6.80;99.90;;;;;;5004617;28;20124;-67
2023/01/10 05:17:45;;;;;;;0.80;0.80;;;6.90;99.90;;;;;;5039256;28;20037;-47
2023/01/10 05:20:12;;;;;;;1.80;1.35;;;6.90;99.90;;;;;;5035912;28;20037;-48
2023/01/10 05:22:38;;;;;;;3.65;1.02;;;6.90;99.90;;;;;;5035782;28;20043;-47
2023/01/10 05:25:05;;;;;;;1.33;1.00;;;6.90;99.90;;;;;;5054051;28;20029;-47
2023/01/10 05:27:30;;;;;;;0.75;0.60;;;7.00;99.90;;;;;;5054056;28;20024;-47
2023/01/10 05:29:56;;;;;;;0.80;0.80;;;7.10;99.90;;;;;;5035472;28;20089;-46
2023/01/10 05:32:22;;;;;;;0.77;0.60;;;7.10;99.90;;;;;;5053626;28;20036;-47
2023/01/10 05:34:49;;;;;;;1.15;0.60;;;7.10;99.90;;;;;;5052391;28;20115;-47
2023/01/10 05:37:14;;;;;;;0.50;0.50;;;7.10;99.90;;;;;;5052185;28;20084;-47
2023/01/10 05:39:41;;;;;;;0.30;0.30;;;7.00;99.90;;;;;;5054205;28;20052;-47
2023/01/10 05:42:07;;;;;;;0.60;0.55;;;7.10;99.90;;;;;;5052682;28;20032;-47
2023/01/10 05:44:33;;;;;;;0.70;0.55;;;7.10;99.90;;;;;;5053290;28;20021;-47
2023/01/10 05:46:59;;;;;;;2.20;0.70;;;7.10;99.90;;;;;;5002414;28;20374;-47
2023/01/10 05:49:24;;;;;;;3.58;0.88;;;7.10;99.90;;;;;;5053523;28;20037;-47
2023/01/10 05:51:50;;;;;;;1.55;0.70;;;6.90;99.90;;;;;;5053963;28;20049;-46
2023/01/10 05:54:16;;;;;;;0.68;0.60;;;6.40;99.90;;;;;;5035337;28;20061;-47
2023/01/10 05:56:42;;;;;;;0.77;0.75;;;7.10;99.90;;;;;;5034491;28;20051;-47
2023/01/10 05:59:07;;;;;;;1.50;1.00;;;7.10;99.90;;;;;;5053845;28;20036;-47
2023/01/10 06:01:33;;;;;;;1.40;0.93;;;7.10;99.90;;;;;;5050975;28;20047;-48
2023/01/10 06:03:59;;;;;;;1.17;1.00;;;6.90;99.90;;;;;;5050706;28;20530;-47
2023/01/10 06:06:25;;;;;;;4.07;2.22;;;6.90;99.90;;;;;;5052068;28;20040;-47
2023/01/10 06:08:54;;;;;;;0.98;0.80;;;6.90;99.90;;;;;;5052675;28;20029;-47
2023/01/10 06:11:20;;;;;;;0.85;0.82;;;6.80;99.90;;;;;;5052229;28;20035;-47
2023/01/10 06:13:47;;;;;;;1.55;1.38;;;6.80;99.90;;;;;;5052211;28;20083;-47
2023/01/10 06:16:13;;;;;;;1.40;1.30;;;6.90;99.90;;;;;;5051591;28;20017;-47
2023/01/10 06:18:39;;;;;;;1.30;1.05;;;6.90;99.90;;;;;;5034561;28;20044;-46
2023/01/10 06:21:05;;;;;;;1.63;1.02;;;6.90;99.90;;;;;;5052391;28;20151;-47
2023/01/10 06:23:30;;;;;;;1.58;0.93;;;6.90;99.90;;;;;;5034432;28;20103;-47
2023/01/10 06:25:56;;;;;;;3.33;1.83;;;7.00;99.90;;;;;;5052846;28;20400;-44
2023/01/10 06:28:22;;;;;;;8.07;3.15;;;7.10;99.90;;;;;;5051614;28;20037;-47
2023/01/10 06:30:48;;;;;;;3.60;1.67;;;7.10;99.90;;;;;;5051592;28;20025;-47
2023/01/10 06:33:13;;;;;;;4.03;2.38;;;7.10;99.90;;;;;;5050538;28;20044;-47
2023/01/10 06:35:39;;;;;;;3.60;2.22;;;7.10;99.90;;;;;;5052292;28;20029;-47
2023/01/10 06:38:05;;;;;;;3.33;1.90;;;7.10;99.90;;;;;;5052763;28;20175;-47
2023/01/10 06:40:30;;;;;;;8.18;4.40;;;7.20;99.90;;;;;;5033998;28;20037;-47
2023/01/10 06:42:57;;;;;;;4.30;2.25;;;7.10;99.90;;;;;;5033321;28;20094;-47
2023/01/10 06:45:24;;;;;;;1.05;0.90;;;7.00;99.90;;;;;;5052916;28;20040;-47
2023/01/10 06:47:49;;;;;;;3.28;2.28;;;7.00;99.90;;;;;;5053097;28;20037;-47
2023/01/10 06:50:15;;;;;;;1.48;1.27;;;7.10;99.90;;;;;;5052892;28;20051;-47
2023/01/10 06:52:41;;;;;;;3.03;2.15;;;7.00;99.90;;;;;;5034129;28;20477;-47
2023/01/10 06:55:07;;;;;;;2.40;1.70;;;7.20;99.90;;;;;;5053308;28;20033;-47
2023/01/10 06:57:34;;;;;;;3.83;2.40;;;7.30;99.90;;;;;;5053115;28;20033;-46
2023/01/10 07:00:03;;;;;;;2.75;1.65;;;7.30;99.90;;;;;;5052984;28;20076;-47
2023/01/10 07:02:28;;;;;;;3.78;2.15;;;7.30;99.90;;;;;;5052667;28;20473;-47
2023/01/10 07:04:54;;;;;;;1.95;1.38;;;7.20;99.90;;;;;;5052953;28;20082;-47
2023/01/10 07:07:20;;;;;;;2.85;2.00;;;7.20;99.90;;;;;;5050824;28;20049;-47
2023/01/10 07:09:46;;;;;;;3.45;2.60;;;7.20;99.90;;;;;;5052625;28;20041;-47
2023/01/10 07:12:12;;;;;;;4.10;1.90;;;7.30;99.90;;;;;;5052622;28;20493;-48
2023/01/10 07:14:37;;;;;;;2.90;1.67;;;7.30;99.90;;;;;;5067664;28;20056;-48
2023/01/10 07:17:03;;;;;;;2.60;2.05;;;7.30;99.90;;;;;;5052569;28;20036;-47
2023/01/10 07:19:29;;;;;;;6.85;4.30;;;7.30;99.90;;;;;;5051328;28;20385;-48
2023/01/10 07:21:54;;;;;;;3.25;2.85;;;7.30;99.90;;;;;;5049324;28;20393;-47
2023/01/10 07:24:20;;;;;;;7.50;4.55;;;7.40;99.90;;;;;;5033508;28;20499;-47
2023/01/10 07:26:46;;;;;;;8.45;4.78;;;7.40;99.90;;;;;;5052838;28;20528;-48
2023/01/10 07:29:12;;;;;;;6.13;4.72;;;7.40;99.90;;;;;;5055989;28;20059;-48
2023/01/10 07:31:37;;;;;;;5.15;3.58;;;7.50;99.90;;;;;;5056144;28;20132;-47
2023/01/10 07:34:03;;;;;;;5.57;3.45;;;7.50;99.90;;;;;;5046577;28;20049;-48
2023/01/10 07:36:29;;;;;;;2.78;1.77;;;7.50;99.90;;;;;;5050852;28;20052;-47
2023/01/10 07:38:55;;;;;;;8.68;4.55;;;7.40;99.90;;;;;;5048123;28;20037;-48
2023/01/10 07:41:20;;;;;;;7.07;4.35;;;7.60;99.90;;;;;;5037033;28;20041;-47
2023/01/10 07:43:47;;;;;;;5.32;2.97;;;7.60;99.90;;;;;;5050733;28;20049;-48
2023/01/10 07:46:13;;;;;;;2.45;1.90;;;7.60;99.90;;;;;;5050804;28;20029;-47
2023/01/10 07:48:41;;;;;;;3.30;1.45;;;7.60;99.90;;;;;;5053533;28;20056;-50
2023/01/10 07:51:07;;;;;;;1.50;1.40;;;7.50;99.90;;;;;;5056988;28;20054;-49
2023/01/10 07:53:33;;;;;;;2.92;1.40;;;7.50;99.90;;;;;;5054502;28;20407;-49
2023/01/10 07:56:01;;;;;;;2.47;1.25;;;7.40;99.90;;;;;;5054673;28;20082;-49
2023/01/10 07:58:27;;;;;;;2.50;1.60;;;7.40;99.90;;;;;;5050597;28;20079;-50
2023/01/10 08:00:57;;;;;;;2.60;1.80;;;7.50;99.90;;;;;;5035523;28;20499;-49
2023/01/10 08:03:23;;;;;;;2.13;1.70;;;7.40;99.90;;;;;;5031326;28;20044;-50
2023/01/10 08:05:49;;;;;;;2.13;1.48;;;7.50;99.90;;;;;;5034056;28;20048;-50
2023/01/10 08:08:16;;;;;;;1.92;1.67;;;7.60;99.90;;;;;;5050877;28;20094;-51
2023/01/10 08:10:42;;;;;;;3.35;2.22;;;7.70;99.90;;;;;;5050229;28;20021;-48
2023/01/10 08:13:07;;;;;;;3.17;2.17;;;7.60;99.90;;;;;;5032579;28;20045;-48
2023/01/10 08:15:33;;;;;;;2.92;2.28;;;7.70;99.90;;;;;;5056766;28;20047;-50
2023/01/10 08:18:00;;;;;;;3.17;1.98;;;7.80;99.90;;;;;;5047350;28;20481;-52
2023/01/10 08:20:27;;;;;;;5.13;3.17;;;7.80;99.90;;;;;;5051927;28;20415;-47
2023/01/10 08:22:53;;;;;;;4.38;2.70;;;7.70;99.90;;;;;;5052139;28;20443;-53
2023/01/10 08:25:18;;;;;;;3.17;2.28;;;7.60;99.90;;;;;;5051695;28;20099;-46
2023/01/10 08:27:44;;;;;;;2.53;2.17;;;7.70;99.90;;;;;;5051746;28;20040;-47
2023/01/10 08:30:10;;;;;;;3.50;2.22;;;7.70;99.90;;;;;;5051703;28;20134;-52
2023/01/10 08:32:36;;;;;;;3.33;2.30;;;7.60;99.90;;;;;;5035271;28;20106;-49
2023/01/10 08:35:02;;;;;;;4.50;3.60;;;7.70;99.90;;;;;;5051769;28;20462;-50
2023/01/10 08:37:28;;;;;;;2.33;1.67;;;7.70;99.90;;;;;;5017988;28;20037;-50
2023/01/10 08:39:53;;;;;;;3.30;1.60;;;7.70;99.90;;;;;;5034979;28;20041;-50
2023/01/10 08:42:19;;;;;;;4.40;2.03;;;7.80;99.90;;;;;;5051099;28;20497;-49
2023/01/10 08:44:45;;;;;;;3.00;1.80;;;7.70;99.90;;;;;;5050953;28;20036;-49
2023/01/10 08:47:11;;;;;;;4.72;3.05;;;7.80;99.90;;;;;;5049580;28;20495;-49
2023/01/10 08:49:37;;;;;;;10.57;7.78;;;7.70;99.90;;;;;;5049174;28;20037;-49
2023/01/10 08:52:03;;;;;;;3.05;1.60;;;7.80;99.90;;;;;;4996716;28;20117;-52
2023/01/10 08:54:28;;;;;;;2.40;1.70;;;7.70;99.90;;;;;;5047754;28;20025;-50
2023/01/10 08:56:54;;;;;;;3.40;2.20;;;7.60;99.90;;;;;;5049611;28;20026;-49
2023/01/10 08:59:20;;;;;;;2.95;2.20;;;7.70;99.90;;;;;;5049887;28;20400;-50
2023/01/10 09:01:45;;;;;;;9.88;6.30;;;7.70;99.90;;;;;;5051616;28;20090;-50
2023/01/10 09:04:11;;;;;;;5.05;4.20;;;7.80;99.90;;;;;;5048744;28;20043;-50
2023/01/10 09:06:37;;;;;;;3.65;2.28;;;7.80;99.90;;;;;;5053305;28;20440;-49
2023/01/10 09:09:03;;;;;;;4.28;2.92;;;7.80;99.90;;;;;;5053203;28;20030;-49
2023/01/10 09:11:29;;;;;;;3.50;2.80;;;7.80;99.90;;;;;;5048615;28;20036;-49
2023/01/10 09:13:54;;;;;;;3.00;1.90;;;7.90;99.90;;;;;;5051453;28;20045;-49
2023/01/10 09:16:20;;;;;;;7.05;5.03;;;7.90;99.90;;;;;;5040255;28;20037;-49
2023/01/10 09:18:46;;;;;;;3.28;2.22;;;8.00;99.90;;;;;;5055986;28;20547;-50
2023/01/10 09:21:12;;;;;;;3.50;2.53;;;8.00;99.90;;;;;;5023305;28;20382;-49
2023/01/10 09:23:39;;;;;;;3.30;2.35;;;7.90;99.90;;;;;;5050739;28;20035;-48
2023/01/10 09:26:05;;;;;;;2.72;1.80;;;7.90;99.90;;;;;;5051116;28;20032;-48
2023/01/10 09:28:31;;;;;;;2.25;1.55;;;7.70;99.90;;;;;;5052023;28;20029;-47
2023/01/10 09:30:56;;;;;;;2.45;1.05;;;7.70;99.90;;;;;;5044039;28;20473;-48
2023/01/10 09:33:22;;;;;;;2.63;2.13;;;7.70;99.90;;;;;;5041254;28;20047;-48
2023/01/10 09:35:48;;;;;;;2.50;1.48;;;7.80;99.90;;;;;;5043617;28;20625;-49
2023/01/10 09:38:17;;;;;;;2.10;1.42;;;7.70;99.90;;;;;;5044246;28;20037;-50
2023/01/10 09:41:04;;;;;;;1.70;1.50;;;7.50;99.90;;;;;;5040755;28;20068;-51
2023/01/10 09:43:51;;;;;;;2.15;1.40;;;7.60;99.90;;;;;;5039737;28;20056;-49
2023/01/10 09:46:43;;;;;;;2.70;1.58;;;7.70;99.90;;;;;;5041960;28;20024;-51
2023/01/10 09:49:57;;;;;;;3.00;2.00;;;7.60;99.90;;;;;;5035039;28;20509;-48
2023/01/10 09:52:28;;;;;;;2.28;1.63;;;7.60;99.90;;;;;;4988199;28;20089;-50
2023/01/10 09:54:57;;;;;;;5.75;3.22;;;7.60;99.90;;;;;;4988634;28;20580;-51
2023/01/10 09:57:23;;;;;;;1.45;0.98;;;7.70;99.90;;;;;;4988621;28;20073;-49
2023/01/10 09:59:52;;;;;;;3.60;2.38;;;7.70;99.90;;;;;;4991804;28;20026;-48
2023/01/10 10:02:21;;;;;;;3.60;1.65;;;7.70;99.90;;;;;;4988073;28;20181;-50
2023/01/10 10:05:21;;;;;;;4.00;2.70;;;7.70;99.90;;;;;;4990146;28;20037;-50
2023/01/10 10:08:04;;;;;;;3.47;2.15;;;7.80;99.90;;;;;;4989317;28;20073;-53
2023/01/10 10:10:51;;;;;;;2.90;2.10;;;7.80;99.90;;;;;;4989597;28;20079;-57
2023/01/10 10:13:35;;;;;;;2.95;2.45;;;7.70;99.90;;;;;;4985830;28;20042;-49
2023/01/10 10:16:12;;;;;;;3.20;2.33;;;7.60;99.90;;;;;;4985739;28;20050;-49
2023/01/10 10:19:10;;;;;;;2.50;2.08;;;7.70;99.90;;;;;;4986820;28;20061;-51
2023/01/10 10:21:56;;;;;;;3.17;2.20;;;7.60;99.90;;;;;;4964938;28;20085;-48
2023/01/10 10:24:34;;;;;;;3.78;2.67;;;7.70;99.90;;;;;;4948843;28;20047;-51
2023/01/10 10:27:29;;;;;;;3.63;2.60;;;7.70;99.90;;;;;;4948977;28;20031;-49
2023/01/10 10:30:17;;;;;;;2.63;1.70;;;7.70;99.90;;;;;;4944763;28;20159;-47
2023/01/10 10:33:19;;;;;;;4.97;2.25;;;7.60;99.90;;;;;;4932118;29;20082;-50
2023/01/10 10:35:59;;;;;;;3.88;2.78;;;7.60;99.90;;;;;;4949490;28;20035;-48
2023/01/10 10:38:29;;;;;;;3.13;2.25;;;7.60;99.90;;;;;;4949021;28;20042;-47
2023/01/10 10:40:58;;;;;;;2.28;1.75;;;7.70;99.90;;;;;;4946824;28;20048;-51
2023/01/10 10:43:30;;;;;;;4.10;2.72;;;7.70;99.90;;;;;;4947810;28;20035;-52
2023/01/10 10:46:12;;;;;;;9.25;5.03;;;7.90;99.90;;;;;;4949305;28;20040;-51
2023/01/10 10:48:55;;;;;;;17.27;9.77;;;7.80;99.90;;;;;;4950162;28;20031;-52
2023/01/10 10:51:46;;;;;;;20.35;10.27;;;7.80;99.90;;;;;;4949633;28;20373;-51
2023/01/10 10:54:13;;;;;;;22.67;10.85;;;7.80;99.90;;;;;;4950466;28;20098;-51
2023/01/10 10:56:39;;;;;;;15.32;8.35;;;7.90;99.90;;;;;;4951357;28;20133;-52
2023/01/10 10:59:05;;;;;;;32.33;16.77;;;7.80;99.90;;;;;;5006403;28;20053;-52
2023/01/10 11:01:31;;;;;;;22.90;11.65;;;7.90;99.90;;;;;;4984540;28;20051;-50
2023/01/10 11:04:07;;;;;;;7.88;4.55;;;7.80;99.90;;;;;;5010664;28;20060;-50
2023/01/10 11:06:37;;;;;;;21.45;14.10;;;7.60;99.90;;;;;;5022740;28;20040;-51
2023/01/10 11:09:05;;;;;;;9.52;5.18;;;7.60;99.90;;;;;;5047964;28;20061;-49
2023/01/10 11:11:35;;;;;;;6.15;3.80;;;7.60;99.90;;;;;;5038542;28;20033;-55
2023/01/10 11:14:03;;;;;;;4.50;2.80;;;7.70;99.90;;;;;;5055592;28;20103;-57
2023/01/10 11:16:38;;;;;;;2.58;2.30;;;7.70;99.90;;;;;;5058124;28;20029;-47
2023/01/10 11:19:25;;;;;;;3.15;2.83;;;7.60;99.90;;;;;;5038545;28;20108;-53
2023/01/10 11:22:05;;;;;;;2.85;2.10;;;7.60;99.90;;;;;;5048083;28;20036;-49
2023/01/10 11:24:38;;;;;;;10.18;7.90;;;7.60;99.90;;;;;;5042756;28;20030;-49
2023/01/10 11:27:29;;;;;;;3.58;2.08;;;7.60;99.90;;;;;;5024931;28;20041;-49
2023/01/10 11:30:07;;;;;;;1.65;1.45;;;7.60;99.90;;;;;;5059487;28;20426;-50
2023/01/10 11:32:39;;;;;;;4.57;2.88;;;7.60;99.90;;;;;;5054192;28;20033;-51
2023/01/10 11:35:26;;;;;;;2.33;1.67;;;7.60;99.90;;;;;;5053288;28;20047;-52
2023/01/10 11:38:16;;;;;;;2.22;0.90;;;7.70;99.90;;;;;;5053227;28;20125;-48
2023/01/10 11:41:01;;;;;;;4.70;2.30;;;7.40;99.90;;;;;;5053855;28;20381;-48
2023/01/10 11:43:26;;;;;;;1.77;1.42;;;7.40;99.90;;;;;;5052012;28;20559;-46
2023/01/10 11:46:01;;;;;;;1.10;0.98;;;7.50;99.90;;;;;;5054077;28;20119;-48
2023/01/10 11:48:46;;;;;;;1.90;1.48;;;7.70;99.90;;;;;;5051061;28;20420;-50
2023/01/10 11:51:21;;;;;;;1.92;1.38;;;7.30;99.90;;;;;;5038288;28;20079;-51
2023/01/10 11:53:50;;;;;;;1.40;1.30;;;7.30;99.90;;;;;;5030442;28;20132;-51
2023/01/10 11:56:33;;;;;;;1.88;1.33;;;7.30;99.90;;;;;;5047974;28;20048;-48
2023/01/10 11:59:08;;;;;;;1.63;1.38;;;7.40;99.90;;;;;;5023582;28;20488;-49
2023/01/10 12:01:43;;;;;;;2.13;1.20;;;7.50;99.90;;;;;;5033033;28;20041;-49
2023/01/10 12:04:19;;;;;;;1.65;1.30;;;7.70;99.90;;;;;;5045741;28;20092;-48
2023/01/10 12:06:53;;;;;;;2.38;1.60;;;7.50;99.90;;;;;;5030400;28;20033;-50
2023/01/10 12:09:39;;;;;;;2.55;1.35;;;7.50;99.90;;;;;;5026682;28;20022;-48
2023/01/10 12:12:09;;;;;;;0.65;0.60;;;7.50;99.90;;;;;;5030796;28;20034;-53
2023/01/10 12:14:34;;;;;;;2.35;2.13;;;7.40;99.90;;;;;;5029880;28;20072;-47
2023/01/10 12:17:02;;;;;;;3.20;2.00;;;7.50;99.90;;;;;;5033886;28;20130;-50
2023/01/10 12:19:28;;;;;;;2.13;1.40;;;7.50;99.90;;;;;;5032393;28;20045;-47
2023/01/10 12:22:01;;;;;;;1.08;0.93;;;7.50;99.90;;;;;;5031341;28;20045;-48
2023/01/10 12:24:33;;;;;;;1.33;1.15;;;7.40;99.90;;;;;;5025968;28;20088;-50
2023/01/10 12:27:01;;;;;;;2.42;1.40;;;7.40;99.90;;;;;;5033777;28;20382;-51
2023/01/10 12:29:33;;;;;;;1.75;1.10;;;7.30;99.90;;;;;;5024415;28;20030;-50
2023/01/10 12:32:02;;;;;;;3.60;1.92;;;7.40;99.90;;;;;;5030239;28;20038;-49
2023/01/10 12:34:43;;;;;;;6.50;5.15;;;7.30;99.90;;;;;;5042796;28;20401;-50
2023/01/10 12:37:38;;;;;;;2.78;2.13;;;7.50;99.90;;;;;;5033530;28;20128;-47
2023/01/10 12:40:10;;;;;;;2.47;1.85;;;7.60;99.90;;;;;;5028629;28;20039;-51
2023/01/10 12:45:50;;;;;;;4.50;1.38;;;7.30;99.90;;;;;;5029633;28;20783;-49
2023/01/10 12:48:24;;;;;;;2.35;1.58;;;7.40;99.90;;;;;;5042289;28;20050;-50
2023/01/10 12:51:00;;;;;;;1.77;1.45;;;7.30;99.90;;;;;;5015155;28;20393;-50
2023/01/10 12:53:34;;;;;;;2.30;1.33;;;7.30;99.90;;;;;;5047265;28;20456;-50
2023/01/10 12:56:05;;;;;;;3.50;1.50;;;7.10;99.90;;;;;;5050688;28;20082;-50
2023/01/10 12:58:45;;;;;;;1.52;1.33;;;7.10;99.90;;;;;;5029809;28;20457;-50
2023/01/10 13:01:17;;;;;;;2.22;1.77;;;7.00;99.90;;;;;;5023845;28;20075;-50
2023/01/10 13:03:45;;;;;;;2.17;1.70;;;7.10;99.90;;;;;;5030919;28;20042;-50
2023/01/10 13:06:23;;;;;;;2.05;1.50;;;7.10;99.90;;;;;;5028811;28;20034;-50
2023/01/10 13:08:50;;;;;;;2.60;1.65;;;7.10;99.90;;;;;;5031606;28;20079;-49
2023/01/10 13:11:20;;;;;;;1.35;1.08;;;7.10;99.90;;;;;;5029249;28;20076;-50
2023/01/10 13:13:55;;;;;;;1.60;1.42;;;6.90;99.90;;;;;;5029781;28;20057;-51
2023/01/10 13:16:35;;;;;;;1.20;1.08;;;6.80;99.90;;;;;;5032488;28;20539;-50
2023/01/10 13:19:09;;;;;;;1.20;0.93;;;6.80;99.90;;;;;;5031325;28;20532;-50
2023/01/10 13:21:37;;;;;;;2.80;1.80;;;6.80;99.90;;;;;;5032165;28;20021;-51
2023/01/10 13:24:13;;;;;;;2.08;1.77;;;6.80;99.90;;;;;;5030410;28;20041;-51
2023/01/10 13:26:57;;;;;;;2.42;1.65;;;6.80;99.90;;;;;;5029247;28;20565;-50